sensor_id;sensor_type;location;lat;lon;timestamp;P1;durP1;ratioP1;P2;durP2;ratioP2
7919;SDS011;18778;47.610;9.776;2023-05-19T00:01:26;5.50;;;3.33;;
7919;SDS011;18778;47.610;9.776;2023-05-19T00:03:53;5.60;;;3.50;;
7919;SDS011;18778;47.610;9.776;2023-05-19T00:06:26;3.60;;;3.30;;
7919;SDS011;18778;47.610;9.776;2023-05-19T00:09:05;3.83;;;3.43;;
7919;SDS011;18778;47.610;9.776;2023-05-19T00:11:33;3.83;;;3.53;;
7919;SDS011;18778;47.610;9.776;2023-05-19T00:14:00;3.60;;;3.30;;
7919;SDS011;18778;47.610;9.776;2023-05-19T00:16:27;3.70;;;3.40;;
7919;SDS011;18778;47.610;9.776;2023-05-19T00:18:54;4.23;;;3.30;;
7919;SDS011;18778;47.610;9.776;2023-05-19T00:21:21;3.80;;;3.50;;
7919;SDS011;18778;47.610;9.776;2023-05-19T00:23:47;4.00;;;3.50;;
7919;SDS011;18778;47.610;9.776;2023-05-19T00:26:13;4.40;;;3.53;;
7919;SDS011;18778;47.610;9.776;2023-05-19T00:28:40;5.67;;;3.57;;
7919;SDS011;18778;47.610;9.776;2023-05-19T00:31:05;3.80;;;3.37;;
7919;SDS011;18778;47.610;9.776;2023-05-19T00:33:31;3.30;;;3.10;;
7919;SDS011;18778;47.610;9.776;2023-05-19T00:36:00;3.53;;;3.23;;
7919;SDS011;18778;47.610;9.776;2023-05-19T00:38:27;3.47;;;3.20;;
7919;SDS011;18778;47.610;9.776;2023-05-19T00:40:57;3.30;;;3.10;;
7919;SDS011;18778;47.610;9.776;2023-05-19T00:43:23;3.30;;;3.00;;
7919;SDS011;18778;47.610;9.776;2023-05-19T00:45:50;3.90;;;3.40;;
7919;SDS011;18778;47.610;9.776;2023-05-19T00:48:15;4.03;;;3.07;;
7919;SDS011;18778;47.610;9.776;2023-05-19T00:50:41;3.20;;;3.00;;
7919;SDS011;18778;47.610;9.776;2023-05-19T00:53:07;3.43;;;3.13;;
7919;SDS011;18778;47.610;9.776;2023-05-19T00:55:33;3.53;;;3.23;;
7919;SDS011;18778;47.610;9.776;2023-05-19T00:58:01;4.70;;;3.40;;
7919;SDS011;18778;47.610;9.776;2023-05-19T01:00:29;4.07;;;3.10;;
7919;SDS011;18778;47.610;9.776;2023-05-19T01:02:55;4.20;;;3.80;;
7919;SDS011;18778;47.610;9.776;2023-05-19T01:05:21;4.03;;;3.40;;
7919;SDS011;18778;47.610;9.776;2023-05-19T01:07:46;4.93;;;3.20;;
7919;SDS011;18778;47.610;9.776;2023-05-19T01:10:17;3.23;;;3.03;;
7919;SDS011;18778;47.610;9.776;2023-05-19T01:12:43;3.30;;;3.10;;
7919;SDS011;18778;47.610;9.776;2023-05-19T01:15:09;3.90;;;3.50;;
7919;SDS011;18778;47.610;9.776;2023-05-19T01:30:53;4.37;;;3.53;;
7919;SDS011;18778;47.610;9.776;2023-05-19T01:33:20;3.60;;;3.30;;
7919;SDS011;18778;47.610;9.776;2023-05-19T01:35:47;3.60;;;3.30;;
7919;SDS011;18778;47.610;9.776;2023-05-19T01:38:14;3.60;;;3.30;;
7919;SDS011;18778;47.610;9.776;2023-05-19T01:40:41;3.90;;;3.40;;
7919;SDS011;18778;47.610;9.776;2023-05-19T01:43:10;3.70;;;3.40;;
7919;SDS011;18778;47.610;9.776;2023-05-19T01:45:37;5.13;;;3.73;;
7919;SDS011;18778;47.610;9.776;2023-05-19T01:48:04;4.70;;;3.57;;
7919;SDS011;18778;47.610;9.776;2023-05-19T01:50:30;3.57;;;2.83;;
7919;SDS011;18778;47.610;9.776;2023-05-19T01:52:57;4.27;;;3.67;;
7919;SDS011;18778;47.610;9.776;2023-05-19T01:55:23;7.20;;;3.60;;
7919;SDS011;18778;47.610;9.776;2023-05-19T02:09:01;4.67;;;3.63;;
7919;SDS011;18778;47.610;9.776;2023-05-19T02:12:00;3.50;;;3.20;;
7919;SDS011;18778;47.610;9.776;2023-05-19T02:17:27;4.20;;;3.80;;
7919;SDS011;18778;47.610;9.776;2023-05-19T02:19:57;4.13;;;3.70;;
7919;SDS011;18778;47.610;9.776;2023-05-19T02:22:23;3.73;;;3.43;;
7919;SDS011;18778;47.610;9.776;2023-05-19T02:24:49;4.30;;;4.00;;
7919;SDS011;18778;47.610;9.776;2023-05-19T02:27:15;5.37;;;4.10;;
7919;SDS011;18778;47.610;9.776;2023-05-19T02:29:41;5.53;;;4.10;;
7919;SDS011;18778;47.610;9.776;2023-05-19T02:32:07;4.43;;;4.03;;
7919;SDS011;18778;47.610;9.776;2023-05-19T02:34:32;4.43;;;3.47;;
7919;SDS011;18778;47.610;9.776;2023-05-19T02:36:58;5.37;;;3.90;;
7919;SDS011;18778;47.610;9.776;2023-05-19T02:39:23;4.83;;;3.90;;
7919;SDS011;18778;47.610;9.776;2023-05-19T02:41:49;4.00;;;3.50;;
7919;SDS011;18778;47.610;9.776;2023-05-19T02:44:14;6.53;;;3.80;;
7919;SDS011;18778;47.610;9.776;2023-05-19T02:46:40;4.27;;;3.87;;
7919;SDS011;18778;47.610;9.776;2023-05-19T02:49:05;5.37;;;4.03;;
7919;SDS011;18778;47.610;9.776;2023-05-19T02:51:31;5.87;;;4.13;;
7919;SDS011;18778;47.610;9.776;2023-05-19T02:53:56;4.70;;;4.30;;
7919;SDS011;18778;47.610;9.776;2023-05-19T02:56:22;5.03;;;4.20;;
7919;SDS011;18778;47.610;9.776;2023-05-19T02:58:48;4.80;;;3.93;;
7919;SDS011;18778;47.610;9.776;2023-05-19T03:01:13;4.40;;;4.00;;
7919;SDS011;18778;47.610;9.776;2023-05-19T03:03:40;4.30;;;4.00;;
7919;SDS011;18778;47.610;9.776;2023-05-19T03:06:05;4.27;;;3.87;;
7919;SDS011;18778;47.610;9.776;2023-05-19T03:08:32;4.30;;;3.90;;
7919;SDS011;18778;47.610;9.776;2023-05-19T03:10:58;5.03;;;4.37;;
7919;SDS011;18778;47.610;9.776;2023-05-19T03:13:24;4.70;;;4.23;;
7919;SDS011;18778;47.610;9.776;2023-05-19T03:15:50;5.20;;;4.23;;
7919;SDS011;18778;47.610;9.776;2023-05-19T03:18:15;4.10;;;3.80;;
7919;SDS011;18778;47.610;9.776;2023-05-19T03:20:41;5.17;;;4.13;;
7919;SDS011;18778;47.610;9.776;2023-05-19T03:23:08;4.53;;;4.13;;
7919;SDS011;18778;47.610;9.776;2023-05-19T03:25:34;4.90;;;4.40;;
7919;SDS011;18778;47.610;9.776;2023-05-19T03:28:00;4.67;;;4.27;;
7919;SDS011;18778;47.610;9.776;2023-05-19T03:30:25;4.43;;;4.03;;
7919;SDS011;18778;47.610;9.776;2023-05-19T03:32:51;4.90;;;4.50;;
7919;SDS011;18778;47.610;9.776;2023-05-19T03:35:17;5.13;;;4.30;;
7919;SDS011;18778;47.610;9.776;2023-05-19T03:37:42;5.13;;;4.63;;
7919;SDS011;18778;47.610;9.776;2023-05-19T03:40:08;4.60;;;4.20;;
7919;SDS011;18778;47.610;9.776;2023-05-19T03:42:34;5.33;;;4.40;;
7919;SDS011;18778;47.610;9.776;2023-05-19T03:45:00;4.67;;;4.27;;
7919;SDS011;18778;47.610;9.776;2023-05-19T03:47:26;4.77;;;4.17;;
7919;SDS011;18778;47.610;9.776;2023-05-19T03:49:51;7.13;;;4.80;;
7919;SDS011;18778;47.610;9.776;2023-05-19T03:52:17;4.60;;;4.20;;
7919;SDS011;18778;47.610;9.776;2023-05-19T03:54:42;4.70;;;4.30;;
7919;SDS011;18778;47.610;9.776;2023-05-19T03:57:08;5.27;;;4.53;;
7919;SDS011;18778;47.610;9.776;2023-05-19T03:59:37;5.07;;;4.50;;
7919;SDS011;18778;47.610;9.776;2023-05-19T04:02:05;4.93;;;4.53;;
7919;SDS011;18778;47.610;9.776;2023-05-19T04:04:30;6.07;;;4.50;;
7919;SDS011;18778;47.610;9.776;2023-05-19T04:06:56;5.20;;;4.70;;
7919;SDS011;18778;47.610;9.776;2023-05-19T04:09:22;5.10;;;4.60;;
7919;SDS011;18778;47.610;9.776;2023-05-19T04:11:50;5.20;;;4.70;;
7919;SDS011;18778;47.610;9.776;2023-05-19T04:14:16;6.03;;;4.30;;
7919;SDS011;18778;47.610;9.776;2023-05-19T04:16:41;6.10;;;4.33;;
7919;SDS011;18778;47.610;9.776;2023-05-19T04:19:07;5.57;;;4.67;;
7919;SDS011;18778;47.610;9.776;2023-05-19T04:21:32;9.57;;;4.77;;
7919;SDS011;18778;47.610;9.776;2023-05-19T04:23:58;4.50;;;4.10;;
7919;SDS011;18778;47.610;9.776;2023-05-19T04:26:24;4.70;;;4.30;;
7919;SDS011;18778;47.610;9.776;2023-05-19T04:28:51;7.70;;;5.13;;
7919;SDS011;18778;47.610;9.776;2023-05-19T04:31:17;5.03;;;4.53;;
7919;SDS011;18778;47.610;9.776;2023-05-19T04:33:45;6.37;;;4.53;;
7919;SDS011;18778;47.610;9.776;2023-05-19T04:36:11;5.37;;;4.87;;
7919;SDS011;18778;47.610;9.776;2023-05-19T04:38:37;5.10;;;4.60;;
7919;SDS011;18778;47.610;9.776;2023-05-19T04:41:06;5.90;;;4.40;;
7919;SDS011;18778;47.610;9.776;2023-05-19T04:43:35;5.33;;;4.50;;
7919;SDS011;18778;47.610;9.776;2023-05-19T04:46:01;5.10;;;4.60;;
7919;SDS011;18778;47.610;9.776;2023-05-19T04:48:30;5.20;;;4.60;;
7919;SDS011;18778;47.610;9.776;2023-05-19T04:50:57;5.40;;;4.90;;
7919;SDS011;18778;47.610;9.776;2023-05-19T04:53:25;5.33;;;4.83;;
7919;SDS011;18778;47.610;9.776;2023-05-19T04:55:52;4.80;;;4.40;;
7919;SDS011;18778;47.610;9.776;2023-05-19T04:58:18;4.90;;;4.47;;
7919;SDS011;18778;47.610;9.776;2023-05-19T05:00:43;4.90;;;4.50;;
7919;SDS011;18778;47.610;9.776;2023-05-19T05:03:09;5.73;;;4.60;;
7919;SDS011;18778;47.610;9.776;2023-05-19T05:05:38;4.93;;;4.53;;
7919;SDS011;18778;47.610;9.776;2023-05-19T05:08:04;5.70;;;4.50;;
7919;SDS011;18778;47.610;9.776;2023-05-19T05:10:30;6.13;;;4.63;;
7919;SDS011;18778;47.610;9.776;2023-05-19T05:12:55;5.20;;;4.50;;
7919;SDS011;18778;47.610;9.776;2023-05-19T05:15:21;5.80;;;4.30;;
7919;SDS011;18778;47.610;9.776;2023-05-19T05:17:48;4.80;;;4.17;;
7919;SDS011;18778;47.610;9.776;2023-05-19T05:20:14;5.00;;;4.57;;
7919;SDS011;18778;47.610;9.776;2023-05-19T05:22:41;5.57;;;4.50;;
7919;SDS011;18778;47.610;9.776;2023-05-19T05:25:10;5.60;;;4.43;;
7919;SDS011;18778;47.610;9.776;2023-05-19T05:27:36;7.30;;;4.87;;
7919;SDS011;18778;47.610;9.776;2023-05-19T05:30:08;7.80;;;6.13;;
7919;SDS011;18778;47.610;9.776;2023-05-19T05:32:34;6.07;;;5.23;;
7919;SDS011;18778;47.610;9.776;2023-05-19T05:35:00;5.77;;;5.20;;
7919;SDS011;18778;47.610;9.776;2023-05-19T05:37:26;9.87;;;5.37;;
7919;SDS011;18778;47.610;9.776;2023-05-19T05:39:52;5.40;;;4.63;;
7919;SDS011;18778;47.610;9.776;2023-05-19T05:42:18;5.47;;;4.90;;
7919;SDS011;18778;47.610;9.776;2023-05-19T05:44:44;4.23;;;3.90;;
7919;SDS011;18778;47.610;9.776;2023-05-19T05:47:10;4.53;;;4.13;;
7919;SDS011;18778;47.610;9.776;2023-05-19T05:49:36;5.00;;;4.50;;
7919;SDS011;18778;47.610;9.776;2023-05-19T05:52:03;5.13;;;4.73;;
7919;SDS011;18778;47.610;9.776;2023-05-19T05:54:29;6.67;;;4.10;;
7919;SDS011;18778;47.610;9.776;2023-05-19T05:56:55;4.57;;;4.13;;
7919;SDS011;18778;47.610;9.776;2023-05-19T05:59:20;5.03;;;4.40;;
7919;SDS011;18778;47.610;9.776;2023-05-19T06:01:46;4.60;;;3.90;;
7919;SDS011;18778;47.610;9.776;2023-05-19T06:04:12;4.97;;;4.27;;
7919;SDS011;18778;47.610;9.776;2023-05-19T06:06:38;4.43;;;4.03;;
7919;SDS011;18778;47.610;9.776;2023-05-19T06:09:06;4.47;;;4.07;;
7919;SDS011;18778;47.610;9.776;2023-05-19T06:11:32;5.03;;;4.17;;
7919;SDS011;18778;47.610;9.776;2023-05-19T06:13:58;4.70;;;4.30;;
7919;SDS011;18778;47.610;9.776;2023-05-19T06:16:23;4.90;;;4.00;;
7919;SDS011;18778;47.610;9.776;2023-05-19T06:18:49;4.30;;;4.00;;
7919;SDS011;18778;47.610;9.776;2023-05-19T06:21:15;5.17;;;4.47;;
7919;SDS011;18778;47.610;9.776;2023-05-19T06:23:42;4.77;;;4.07;;
7919;SDS011;18778;47.610;9.776;2023-05-19T06:26:07;6.10;;;4.90;;
7919;SDS011;18778;47.610;9.776;2023-05-19T06:28:33;4.20;;;3.77;;
7919;SDS011;18778;47.610;9.776;2023-05-19T06:30:58;4.37;;;3.97;;
7919;SDS011;18778;47.610;9.776;2023-05-19T06:33:24;9.13;;;5.80;;
7919;SDS011;18778;47.610;9.776;2023-05-19T06:35:50;7.67;;;5.40;;
7919;SDS011;18778;47.610;9.776;2023-05-19T06:38:16;5.40;;;4.90;;
7919;SDS011;18778;47.610;9.776;2023-05-19T06:40:42;4.70;;;4.30;;
7919;SDS011;18778;47.610;9.776;2023-05-19T06:43:08;4.40;;;4.00;;
7919;SDS011;18778;47.610;9.776;2023-05-19T06:45:34;4.27;;;3.87;;
7919;SDS011;18778;47.610;9.776;2023-05-19T06:48:00;4.20;;;3.80;;
7919;SDS011;18778;47.610;9.776;2023-05-19T06:50:25;4.17;;;3.77;;
7919;SDS011;18778;47.610;9.776;2023-05-19T06:52:51;3.77;;;3.47;;
7919;SDS011;18778;47.610;9.776;2023-05-19T06:55:17;4.43;;;4.03;;
7919;SDS011;18778;47.610;9.776;2023-05-19T06:57:43;4.27;;;3.97;;
7919;SDS011;18778;47.610;9.776;2023-05-19T07:00:09;5.50;;;3.70;;
7919;SDS011;18778;47.610;9.776;2023-05-19T07:02:36;4.50;;;3.80;;
7919;SDS011;18778;47.610;9.776;2023-05-19T07:05:02;4.37;;;3.67;;
7919;SDS011;18778;47.610;9.776;2023-05-19T07:07:28;6.90;;;4.60;;
7919;SDS011;18778;47.610;9.776;2023-05-19T07:09:53;4.33;;;3.43;;
7919;SDS011;18778;47.610;9.776;2023-05-19T07:12:19;14.57;;;9.87;;
7919;SDS011;18778;47.610;9.776;2023-05-19T07:14:45;11.63;;;8.40;;
7919;SDS011;18778;47.610;9.776;2023-05-19T07:17:10;6.50;;;5.60;;
7919;SDS011;18778;47.610;9.776;2023-05-19T07:19:36;4.40;;;4.00;;
7919;SDS011;18778;47.610;9.776;2023-05-19T07:22:02;4.97;;;4.03;;
7919;SDS011;18778;47.610;9.776;2023-05-19T07:24:28;7.53;;;3.90;;
7919;SDS011;18778;47.610;9.776;2023-05-19T07:26:54;4.43;;;4.03;;
7919;SDS011;18778;47.610;9.776;2023-05-19T07:29:20;4.70;;;4.20;;
7919;SDS011;18778;47.610;9.776;2023-05-19T07:31:46;4.60;;;4.20;;
7919;SDS011;18778;47.610;9.776;2023-05-19T07:34:17;4.50;;;4.00;;
7919;SDS011;18778;47.610;9.776;2023-05-19T07:40:32;4.30;;;3.90;;
7919;SDS011;18778;47.610;9.776;2023-05-19T07:42:58;4.57;;;4.17;;
7919;SDS011;18778;47.610;9.776;2023-05-19T07:45:23;5.33;;;4.17;;
7919;SDS011;18778;47.610;9.776;2023-05-19T07:47:49;5.30;;;4.80;;
7919;SDS011;18778;47.610;9.776;2023-05-19T07:50:16;4.70;;;4.30;;
7919;SDS011;18778;47.610;9.776;2023-05-19T07:52:42;4.53;;;4.13;;
7919;SDS011;18778;47.610;9.776;2023-05-19T07:55:11;5.97;;;4.20;;
7919;SDS011;18778;47.610;9.776;2023-05-19T07:57:37;4.67;;;3.97;;
7919;SDS011;18778;47.610;9.776;2023-05-19T08:00:03;4.83;;;4.10;;
7919;SDS011;18778;47.610;9.776;2023-05-19T08:02:33;5.30;;;4.10;;
7919;SDS011;18778;47.610;9.776;2023-05-19T08:04:59;3.83;;;3.43;;
7919;SDS011;18778;47.610;9.776;2023-05-19T08:07:25;4.80;;;4.17;;
7919;SDS011;18778;47.610;9.776;2023-05-19T08:09:50;4.20;;;3.80;;
7919;SDS011;18778;47.610;9.776;2023-05-19T08:12:16;4.47;;;4.07;;
7919;SDS011;18778;47.610;9.776;2023-05-19T08:14:42;5.53;;;4.07;;
7919;SDS011;18778;47.610;9.776;2023-05-19T08:17:08;4.53;;;4.13;;
7919;SDS011;18778;47.610;9.776;2023-05-19T08:19:34;6.90;;;4.60;;
7919;SDS011;18778;47.610;9.776;2023-05-19T08:22:00;6.03;;;4.47;;
7919;SDS011;18778;47.610;9.776;2023-05-19T08:24:27;8.53;;;5.13;;
7919;SDS011;18778;47.610;9.776;2023-05-19T08:26:54;6.47;;;4.97;;
7919;SDS011;18778;47.610;9.776;2023-05-19T08:29:19;5.60;;;4.87;;
7919;SDS011;18778;47.610;9.776;2023-05-19T08:31:45;7.80;;;5.47;;
7919;SDS011;18778;47.610;9.776;2023-05-19T08:34:11;7.03;;;5.17;;
7919;SDS011;18778;47.610;9.776;2023-05-19T08:36:37;6.37;;;4.93;;
7919;SDS011;18778;47.610;9.776;2023-05-19T08:39:06;6.17;;;4.87;;
7919;SDS011;18778;47.610;9.776;2023-05-19T08:41:32;7.23;;;5.00;;
7919;SDS011;18778;47.610;9.776;2023-05-19T08:43:58;6.73;;;5.67;;
7919;SDS011;18778;47.610;9.776;2023-05-19T08:46:24;5.63;;;5.03;;
7919;SDS011;18778;47.610;9.776;2023-05-19T08:48:50;7.07;;;5.17;;
7919;SDS011;18778;47.610;9.776;2023-05-19T08:52:08;7.27;;;4.87;;
7919;SDS011;18778;47.610;9.776;2023-05-19T08:54:20;6.67;;;4.97;;
7919;SDS011;18778;47.610;9.776;2023-05-19T08:56:52;6.33;;;4.90;;
7919;SDS011;18778;47.610;9.776;2023-05-19T08:59:18;6.27;;;5.00;;
7919;SDS011;18778;47.610;9.776;2023-05-19T09:01:47;5.13;;;4.60;;
7919;SDS011;18778;47.610;9.776;2023-05-19T09:04:14;6.43;;;4.87;;
7919;SDS011;18778;47.610;9.776;2023-05-19T09:06:40;4.77;;;4.13;;
7919;SDS011;18778;47.610;9.776;2023-05-19T09:09:09;8.53;;;5.13;;
7919;SDS011;18778;47.610;9.776;2023-05-19T09:11:35;5.33;;;4.83;;
7919;SDS011;18778;47.610;9.776;2023-05-19T09:14:02;5.53;;;4.90;;
7919;SDS011;18778;47.610;9.776;2023-05-19T09:16:28;8.43;;;4.90;;
7919;SDS011;18778;47.610;9.776;2023-05-19T09:18:57;5.97;;;5.00;;
7919;SDS011;18778;47.610;9.776;2023-05-19T09:21:31;7.20;;;5.03;;
7919;SDS011;18778;47.610;9.776;2023-05-19T09:23:57;4.97;;;4.47;;
7919;SDS011;18778;47.610;9.776;2023-05-19T09:26:24;6.77;;;4.47;;
7919;SDS011;18778;47.610;9.776;2023-05-19T09:28:50;4.83;;;4.37;;
7919;SDS011;18778;47.610;9.776;2023-05-19T09:31:16;5.67;;;4.27;;
7919;SDS011;18778;47.610;9.776;2023-05-19T09:33:42;7.00;;;4.90;;
7919;SDS011;18778;47.610;9.776;2023-05-19T09:36:07;6.63;;;4.57;;
7919;SDS011;18778;47.610;9.776;2023-05-19T09:38:35;5.90;;;4.90;;
7919;SDS011;18778;47.610;9.776;2023-05-19T09:41:01;5.47;;;4.43;;
7919;SDS011;18778;47.610;9.776;2023-05-19T09:43:28;7.00;;;4.70;;
7919;SDS011;18778;47.610;9.776;2023-05-19T09:45:58;5.90;;;4.60;;
7919;SDS011;18778;47.610;9.776;2023-05-19T09:48:27;7.33;;;4.87;;
7919;SDS011;18778;47.610;9.776;2023-05-19T09:50:53;6.07;;;4.80;;
7919;SDS011;18778;47.610;9.776;2023-05-19T09:53:19;6.03;;;4.77;;
7919;SDS011;18778;47.610;9.776;2023-05-19T09:55:46;5.30;;;4.60;;
7919;SDS011;18778;47.610;9.776;2023-05-19T09:58:16;5.60;;;4.67;;
7919;SDS011;18778;47.610;9.776;2023-05-19T10:00:43;6.63;;;4.73;;
7919;SDS011;18778;47.610;9.776;2023-05-19T10:03:09;6.60;;;5.60;;
7919;SDS011;18778;47.610;9.776;2023-05-19T10:05:36;6.33;;;4.80;;
7919;SDS011;18778;47.610;9.776;2023-05-19T10:08:02;7.73;;;5.40;;
7919;SDS011;18778;47.610;9.776;2023-05-19T10:10:31;6.03;;;4.63;;
7919;SDS011;18778;47.610;9.776;2023-05-19T10:12:57;5.30;;;4.57;;
7919;SDS011;18778;47.610;9.776;2023-05-19T10:15:24;5.10;;;4.20;;
7919;SDS011;18778;47.610;9.776;2023-05-19T10:17:50;5.50;;;4.33;;
7919;SDS011;18778;47.610;9.776;2023-05-19T10:20:16;6.83;;;4.60;;
7919;SDS011;18778;47.610;9.776;2023-05-19T10:22:42;7.77;;;4.40;;
7919;SDS011;18778;47.610;9.776;2023-05-19T10:25:10;8.73;;;4.90;;
7919;SDS011;18778;47.610;9.776;2023-05-19T10:33:08;6.10;;;4.73;;
7919;SDS011;18778;47.610;9.776;2023-05-19T10:35:58;4.80;;;4.30;;
7919;SDS011;18778;47.610;9.776;2023-05-19T10:44:22;6.50;;;5.17;;
7919;SDS011;18778;47.610;9.776;2023-05-19T10:46:35;4.77;;;4.23;;
7919;SDS011;18778;47.610;9.776;2023-05-19T10:49:01;5.83;;;4.47;;
7919;SDS011;18778;47.610;9.776;2023-05-19T10:51:30;5.47;;;4.67;;
7919;SDS011;18778;47.610;9.776;2023-05-19T10:53:56;7.20;;;4.57;;
7919;SDS011;18778;47.610;9.776;2023-05-19T10:56:27;5.43;;;4.23;;
7919;SDS011;18778;47.610;9.776;2023-05-19T10:59:00;6.37;;;4.30;;
7919;SDS011;18778;47.610;9.776;2023-05-19T11:01:30;6.27;;;4.07;;
7919;SDS011;18778;47.610;9.776;2023-05-19T11:07:03;6.37;;;4.27;;
7919;SDS011;18778;47.610;9.776;2023-05-19T11:09:28;8.23;;;4.30;;
7919;SDS011;18778;47.610;9.776;2023-05-19T11:12:00;8.53;;;5.00;;
7919;SDS011;18778;47.610;9.776;2023-05-19T11:14:27;6.13;;;4.30;;
7919;SDS011;18778;47.610;9.776;2023-05-19T11:16:58;6.93;;;4.63;;
7919;SDS011;18778;47.610;9.776;2023-05-19T11:19:24;4.87;;;4.07;;
7919;SDS011;18778;47.610;9.776;2023-05-19T11:21:52;4.80;;;4.23;;
7919;SDS011;18778;47.610;9.776;2023-05-19T11:24:34;6.97;;;3.90;;
7919;SDS011;18778;47.610;9.776;2023-05-19T11:29:48;6.43;;;4.10;;
7919;SDS011;18778;47.610;9.776;2023-05-19T11:32:15;6.03;;;3.80;;
7919;SDS011;18778;47.610;9.776;2023-05-19T11:34:42;4.97;;;4.07;;
7919;SDS011;18778;47.610;9.776;2023-05-19T11:37:09;7.83;;;4.30;;
7919;SDS011;18778;47.610;9.776;2023-05-19T11:39:36;5.13;;;3.73;;
7919;SDS011;18778;47.610;9.776;2023-05-19T11:42:03;4.60;;;3.83;;
7919;SDS011;18778;47.610;9.776;2023-05-19T11:44:28;5.20;;;4.03;;
7919;SDS011;18778;47.610;9.776;2023-05-19T11:46:54;7.37;;;4.50;;
7919;SDS011;18778;47.610;9.776;2023-05-19T11:49:20;5.57;;;3.90;;
7919;SDS011;18778;47.610;9.776;2023-05-19T11:51:46;4.13;;;3.73;;
7919;SDS011;18778;47.610;9.776;2023-05-19T11:54:12;6.03;;;4.03;;
7919;SDS011;18778;47.610;9.776;2023-05-19T11:56:39;5.63;;;4.20;;
7919;SDS011;18778;47.610;9.776;2023-05-19T11:59:08;6.50;;;4.27;;
7919;SDS011;18778;47.610;9.776;2023-05-19T12:01:34;7.47;;;4.30;;
7919;SDS011;18778;47.610;9.776;2023-05-19T12:04:00;4.30;;;3.90;;
7919;SDS011;18778;47.610;9.776;2023-05-19T12:06:26;5.17;;;4.53;;
7919;SDS011;18778;47.610;9.776;2023-05-19T12:08:53;4.63;;;4.10;;
7919;SDS011;18778;47.610;9.776;2023-05-19T12:11:19;5.30;;;4.53;;
7919;SDS011;18778;47.610;9.776;2023-05-19T12:13:48;6.97;;;4.10;;
7919;SDS011;18778;47.610;9.776;2023-05-19T12:16:21;7.87;;;4.20;;
7919;SDS011;18778;47.610;9.776;2023-05-19T12:18:47;7.33;;;5.10;;
7919;SDS011;18778;47.610;9.776;2023-05-19T12:21:13;7.40;;;4.10;;
7919;SDS011;18778;47.610;9.776;2023-05-19T12:23:39;5.47;;;3.83;;
7919;SDS011;18778;47.610;9.776;2023-05-19T12:26:06;4.13;;;3.70;;
7919;SDS011;18778;47.610;9.776;2023-05-19T12:28:32;4.83;;;3.50;;
7919;SDS011;18778;47.610;9.776;2023-05-19T12:30:58;4.03;;;3.57;;
7919;SDS011;18778;47.610;9.776;2023-05-19T12:33:23;5.13;;;3.97;;
7919;SDS011;18778;47.610;9.776;2023-05-19T12:35:50;4.30;;;3.30;;
7919;SDS011;18778;47.610;9.776;2023-05-19T12:38:16;6.00;;;3.97;;
7919;SDS011;18778;47.610;9.776;2023-05-19T12:40:42;5.23;;;4.07;;
7919;SDS011;18778;47.610;9.776;2023-05-19T12:43:17;4.63;;;3.73;;
7919;SDS011;18778;47.610;9.776;2023-05-19T12:45:44;5.20;;;3.57;;
7919;SDS011;18778;47.610;9.776;2023-05-19T12:48:10;6.00;;;4.00;;
7919;SDS011;18778;47.610;9.776;2023-05-19T12:50:37;6.00;;;3.50;;
7919;SDS011;18778;47.610;9.776;2023-05-19T12:53:06;4.03;;;3.63;;
7919;SDS011;18778;47.610;9.776;2023-05-19T12:55:39;4.70;;;3.40;;
7919;SDS011;18778;47.610;9.776;2023-05-19T12:58:09;5.50;;;4.30;;
7919;SDS011;18778;47.610;9.776;2023-05-19T13:00:42;6.03;;;4.27;;
7919;SDS011;18778;47.610;9.776;2023-05-19T13:03:14;7.17;;;4.73;;
7919;SDS011;18778;47.610;9.776;2023-05-19T13:05:42;5.10;;;3.97;;
7919;SDS011;18778;47.610;9.776;2023-05-19T13:08:20;4.53;;;3.63;;
7919;SDS011;18778;47.610;9.776;2023-05-19T13:10:47;9.37;;;5.50;;
7919;SDS011;18778;47.610;9.776;2023-05-19T13:13:14;6.73;;;5.07;;
7919;SDS011;18778;47.610;9.776;2023-05-19T13:15:40;5.70;;;5.20;;
7919;SDS011;18778;47.610;9.776;2023-05-19T13:18:08;5.87;;;4.80;;
7919;SDS011;18778;47.610;9.776;2023-05-19T13:20:36;8.50;;;4.40;;
7919;SDS011;18778;47.610;9.776;2023-05-19T13:23:02;6.43;;;4.20;;
7919;SDS011;18778;47.610;9.776;2023-05-19T13:25:29;8.30;;;6.17;;
7919;SDS011;18778;47.610;9.776;2023-05-19T13:27:55;9.27;;;5.30;;
7919;SDS011;18778;47.610;9.776;2023-05-19T13:30:23;7.77;;;5.97;;
7919;SDS011;18778;47.610;9.776;2023-05-19T13:32:49;8.73;;;5.20;;
7919;SDS011;18778;47.610;9.776;2023-05-19T13:35:16;6.47;;;5.47;;
7919;SDS011;18778;47.610;9.776;2023-05-19T13:37:42;8.37;;;6.17;;
7919;SDS011;18778;47.610;9.776;2023-05-19T13:40:08;8.80;;;5.97;;
7919;SDS011;18778;47.610;9.776;2023-05-19T13:42:34;7.83;;;5.63;;
7919;SDS011;18778;47.610;9.776;2023-05-19T13:45:00;11.90;;;6.17;;
7919;SDS011;18778;47.610;9.776;2023-05-19T13:47:26;12.17;;;6.07;;
7919;SDS011;18778;47.610;9.776;2023-05-19T13:49:52;22.47;;;7.70;;
7919;SDS011;18778;47.610;9.776;2023-05-19T13:52:19;14.87;;;6.10;;
7919;SDS011;18778;47.610;9.776;2023-05-19T13:54:45;13.03;;;6.70;;
7919;SDS011;18778;47.610;9.776;2023-05-19T13:57:12;10.57;;;5.00;;
7919;SDS011;18778;47.610;9.776;2023-05-19T13:59:38;6.37;;;5.17;;
7919;SDS011;18778;47.610;9.776;2023-05-19T14:02:05;7.60;;;5.33;;
7919;SDS011;18778;47.610;9.776;2023-05-19T14:04:31;8.33;;;6.00;;
7919;SDS011;18778;47.610;9.776;2023-05-19T14:06:57;8.60;;;5.97;;
7919;SDS011;18778;47.610;9.776;2023-05-19T14:09:23;20.83;;;8.97;;
7919;SDS011;18778;47.610;9.776;2023-05-19T14:11:49;10.07;;;7.03;;
7919;SDS011;18778;47.610;9.776;2023-05-19T14:14:15;10.37;;;6.53;;
7919;SDS011;18778;47.610;9.776;2023-05-19T14:16:44;9.47;;;5.80;;
7919;SDS011;18778;47.610;9.776;2023-05-19T14:19:10;17.30;;;9.13;;
7919;SDS011;18778;47.610;9.776;2023-05-19T14:21:36;9.30;;;6.53;;
7919;SDS011;18778;47.610;9.776;2023-05-19T14:24:02;10.30;;;7.47;;
7919;SDS011;18778;47.610;9.776;2023-05-19T14:26:28;8.00;;;7.20;;
7919;SDS011;18778;47.610;9.776;2023-05-19T14:28:54;9.87;;;6.87;;
7919;SDS011;18778;47.610;9.776;2023-05-19T14:31:21;10.27;;;7.77;;
7919;SDS011;18778;47.610;9.776;2023-05-19T14:33:46;8.80;;;7.80;;
7919;SDS011;18778;47.610;9.776;2023-05-19T14:36:12;9.63;;;6.80;;
7919;SDS011;18778;47.610;9.776;2023-05-19T14:38:37;10.10;;;6.90;;
7919;SDS011;18778;47.610;9.776;2023-05-19T14:41:04;8.50;;;6.80;;
7919;SDS011;18778;47.610;9.776;2023-05-19T14:43:30;7.70;;;6.90;;
7919;SDS011;18778;47.610;9.776;2023-05-19T14:45:56;8.43;;;6.93;;
7919;SDS011;18778;47.610;9.776;2023-05-19T14:48:22;8.53;;;7.20;;
7919;SDS011;18778;47.610;9.776;2023-05-19T14:50:48;11.03;;;7.30;;
7919;SDS011;18778;47.610;9.776;2023-05-19T14:53:13;7.97;;;7.20;;
7919;SDS011;18778;47.610;9.776;2023-05-19T14:55:40;11.23;;;7.93;;
7919;SDS011;18778;47.610;9.776;2023-05-19T14:58:06;9.53;;;7.40;;
7919;SDS011;18778;47.610;9.776;2023-05-19T15:00:32;13.10;;;8.07;;
7919;SDS011;18778;47.610;9.776;2023-05-19T15:02:58;8.70;;;7.57;;
7919;SDS011;18778;47.610;9.776;2023-05-19T15:05:24;11.93;;;7.97;;
7919;SDS011;18778;47.610;9.776;2023-05-19T15:07:49;11.13;;;8.33;;
7919;SDS011;18778;47.610;9.776;2023-05-19T15:10:18;11.93;;;8.53;;
7919;SDS011;18778;47.610;9.776;2023-05-19T15:12:44;9.43;;;8.40;;
7919;SDS011;18778;47.610;9.776;2023-05-19T15:15:10;11.33;;;8.53;;
7919;SDS011;18778;47.610;9.776;2023-05-19T15:17:36;11.30;;;8.43;;
7919;SDS011;18778;47.610;9.776;2023-05-19T15:20:02;11.90;;;8.83;;
7919;SDS011;18778;47.610;9.776;2023-05-19T15:22:28;11.30;;;8.60;;
7919;SDS011;18778;47.610;9.776;2023-05-19T15:24:54;11.03;;;8.73;;
7919;SDS011;18778;47.610;9.776;2023-05-19T15:27:20;12.37;;;8.80;;
7919;SDS011;18778;47.610;9.776;2023-05-19T15:29:46;11.23;;;9.20;;
7919;SDS011;18778;47.610;9.776;2023-05-19T15:32:11;10.13;;;8.90;;
7919;SDS011;18778;47.610;9.776;2023-05-19T15:34:37;11.00;;;8.30;;
7919;SDS011;18778;47.610;9.776;2023-05-19T15:37:03;10.50;;;8.57;;
7919;SDS011;18778;47.610;9.776;2023-05-19T15:39:30;10.47;;;9.43;;
7919;SDS011;18778;47.610;9.776;2023-05-19T15:41:57;14.03;;;9.70;;
7919;SDS011;18778;47.610;9.776;2023-05-19T15:44:23;11.07;;;9.83;;
7919;SDS011;18778;47.610;9.776;2023-05-19T15:46:49;10.87;;;8.83;;